Bombala, New South Wales

5:14 AM AEST on July 28, 2016 (GMT +1000)
Delegate | | Change Station

Elev 2520 ft 37.04 °S, 148.93 °E | Updated 3 minutes ago

Clear
Clear
34.7 °F
Feels Like 35 °F
N
2.0
Wind Variable Wind from South
Gusts 2.0 mph

Today
High -- | Low -- °F
--% Chance of Precip.
Yesterday
High -- | Low -- °F
Precip. -- in
Pressure 30.12 in
Visibility 6.2 miles
Clouds
Windchill 35 °F
Dew Point 34 °F
Humidity 99%
Rainfall 0.00 in
Snow Depth Not available.
7:05 AM 5:14 PM
Last Quarter, 40% visible
METAR YCOM 271800Z AUTO 27002KT 9999 // NCD M01/M02 Q1020
Pressure 30.12 in
Visibility 6.2 miles
Clouds
Windchill 35 °F
Dew Point 34 °F
Humidity 99%
Rainfall 0.00 in
Snow Depth Not available.
7:05 AM 5:14 PM
Last Quarter, 40% visible
METAR YCOM 271800Z AUTO 27002KT 9999 // NCD M01/M02 Q1020

10-Day Weather Forecast

No radar image for this location.
×

Almanac

Astronomy

Jul. 28, 2016 Rise Set
Actual Time
Civil Twilight
Nautical Twilight
Astronomical Twilight
Moon
Length of Visible Light
Length of Day
Tomorrow will be .
, % of the Moon is Illuminated

Today's Extremes

Country Highs Country Lows

Community

WunderPhotos

Upload Photos

1,927,909 photos uploaded!

WunderBlog® & News

Nearby

Air Quality

  Air Quality AQ Index Pollutant
Not available.

Snow Depth

Station Depth Elevation

Earthquake Activity

City Distance Mag. Time & Date
Minimum magnitude displayed is 2.5.

Coastal Water Temperatures

Place Temperature

Stations

Nearby Weather Stations

Station Location Temp. Windchill Dew Point Humidity Wind Precip. Elev Updated Type